Time;durP1;ratioP1;P1;durP2;ratioP2;P2;SDS_P1;SDS_P2;PMS_P1;PMS_P2;Temp;Humidity;BMP_temperature;BMP_pressure;BME280_temperature;BME280_humidity;BME280_pressure;Samples;Min_cycle;Max_cycle;Signal;HPM_P1;HPM_P2
2021/04/11 00:00:21;;;;;;;15.43;6.75;;;;;;;8.51;46.01;101993.06;143736;599;46018;-72
2021/04/11 00:02:49;;;;;;;19.98;9.82;;;;;;;8.46;46.17;101994.78;143737;568;46010;-72
2021/04/11 00:05:18;;;;;;;19.35;8.63;;;;;;;8.41;46.17;101994.75;143736;597;49010;-72
2021/04/11 00:07:45;;;;;;;14.32;6.95;;;;;;;8.39;46.32;102001.75;143736;563;47020;-72
2021/04/11 00:10:19;;;;;;;8.60;4.12;;;;;;;8.36;45.55;101988.66;143738;659;46019;-72
2021/04/11 00:12:46;;;;;;;5.32;2.92;;;;;;;8.34;46.27;102002.59;143734;583;46010;-72
2021/04/11 00:15:14;;;;;;;24.70;11.48;;;;;;;8.31;45.63;102006.09;143740;578;48010;-72
2021/04/11 00:17:42;;;;;;;21.15;10.10;;;;;;;8.27;45.28;102001.75;143737;580;47020;-72
2021/04/11 00:20:11;;;;;;;12.25;4.95;;;;;;;8.24;45.64;101999.97;143739;623;47010;-72
2021/04/11 00:22:38;;;;;;;9.25;4.43;;;;;;;8.21;45.56;101999.09;143736;638;46018;-73
2021/04/11 00:25:08;;;;;;;7.00;3.53;;;;;;;8.19;45.29;102009.56;143732;569;49007;-72
2021/04/11 00:27:35;;;;;;;7.62;3.00;;;;;;;8.17;45.48;102000.81;143735;567;46022;-72
2021/04/11 00:30:04;;;;;;;10.70;3.40;;;;;;;8.16;44.99;101999.09;143736;575;48010;-72
2021/04/11 00:32:31;;;;;;;8.98;3.22;;;;;;;8.15;45.08;102005.19;143736;606;46013;-72
2021/04/11 00:34:58;;;;;;;7.68;2.87;;;;;;;8.14;44.97;101996.44;143739;579;48010;-72
2021/04/11 00:37:28;;;;;;;6.55;2.60;;;;;;;8.14;44.76;101987.72;143735;565;48022;-73
2021/04/11 00:39:58;;;;;;;6.45;2.72;;;;;;;8.15;45.22;101992.09;143736;588;46019;-72
2021/04/11 00:42:35;;;;;;;19.00;7.50;;;;;;;8.14;44.83;101985.97;143738;597;46027;-72
2021/04/11 00:45:50;;;;;;;15.45;6.57;;;;;;;8.15;44.04;101992.09;143738;623;48010;-72
2021/04/11 00:48:18;;;;;;;33.83;13.20;;;;;;;8.08;45.04;101995.59;143737;669;46010;-73
2021/04/11 00:51:00;;;;;;;19.50;7.03;;;;;;;8.07;44.88;101991.22;143731;585;46018;-72
2021/04/11 00:53:28;;;;;;;3.87;2.60;;;;;;;8.03;45.78;101986.84;143738;582;46011;-72
2021/04/11 00:55:55;;;;;;;4.90;2.30;;;;;;;8.02;45.26;101992.94;143741;637;46019;-73
2021/04/11 00:58:25;;;;;;;6.95;2.30;;;;;;;8.02;45.36;101995.53;143737;618;46010;-72
2021/04/11 01:00:52;;;;;;;7.05;2.90;;;;;;;8.00;45.51;101998.16;143735;615;49010;-72
2021/04/11 01:03:22;;;;;;;7.72;3.37;;;;;;;8.02;45.45;101995.53;143734;581;46012;-72
2021/04/11 01:05:50;;;;;;;8.25;3.30;;;;;;;8.01;45.04;101988.56;143739;578;46025;-72
2021/04/11 01:08:20;;;;;;;4.80;2.60;;;;;;;7.97;45.28;101982.47;143735;568;47020;-73
2021/04/11 01:11:17;;;;;;;8.98;4.90;;;;;;;7.87;44.40;101964.97;143738;580;46018;-72
2021/04/11 01:13:56;;;;;;;5.93;2.78;;;;;;;7.95;45.38;101989.41;143736;599;46010;-72
2021/04/11 01:16:25;;;;;;;7.05;3.67;;;;;;;7.93;45.31;101986.81;143738;657;48010;-72
2021/04/11 01:18:53;;;;;;;13.90;5.00;;;;;;;7.93;44.97;101992.03;143736;590;47023;-72
2021/04/11 01:22:00;;;;;;;10.90;4.20;;;;;;;7.95;44.12;101989.41;143737;564;47010;-73
2021/04/11 01:25:01;;;;;;;9.27;3.33;;;;;;;7.93;44.79;101989.41;143738;586;46011;-72
2021/04/11 01:27:34;;;;;;;6.70;3.55;;;;;;;7.91;44.91;101988.56;143739;590;46016;-72
2021/04/11 01:30:23;;;;;;;11.68;4.10;;;;;;;7.91;45.79;101985.94;143734;565;48022;-72
2021/04/11 01:32:52;;;;;;;5.80;2.75;;;;;;;7.91;44.80;101983.31;143738;602;46018;-66
2021/04/11 01:35:25;;;;;;;5.68;2.92;;;;;;;7.92;45.67;101990.28;143738;659;46018;-74
2021/04/11 01:37:54;;;;;;;10.88;4.90;;;;;;;7.91;45.60;101987.66;143738;573;48010;-72
2021/04/11 01:40:45;;;;;;;11.48;4.87;;;;;;;7.89;45.92;101987.66;143738;581;46010;-72
2021/04/11 01:43:13;;;;;;;8.10;3.60;;;;;;;7.89;46.24;101994.66;143738;737;46018;-72
2021/04/11 01:45:41;;;;;;;6.07;2.80;;;;;;;7.89;46.45;101997.25;143735;568;47008;-72
2021/04/11 01:48:11;;;;;;;5.20;3.20;;;;;;;7.88;47.16;102003.34;143739;650;48010;-72
2021/04/11 01:50:39;;;;;;;6.62;3.08;;;;;;;7.86;46.68;101999.84;143736;575;47022;-72
2021/04/11 01:53:08;;;;;;;7.22;2.92;;;;;;;7.82;46.98;101988.50;143735;565;48010;-72
2021/04/11 01:55:35;;;;;;;12.32;4.85;;;;;;;7.80;46.42;101998.09;143737;575;46010;-72
2021/04/11 01:58:03;;;;;;;17.92;7.60;;;;;;;7.75;46.33;101994.56;143740;587;46018;-74
2021/04/11 02:00:43;;;;;;;39.55;16.60;;;;;;;7.73;45.53;101985.84;143738;663;46010;-72
2021/04/11 02:03:15;;;;;;;22.83;10.13;;;;;;;7.69;46.03;101991.94;143738;585;46018;-72
2021/04/11 02:05:45;;;;;;;15.63;5.60;;;;;;;7.63;46.49;101982.34;143738;645;46010;-72
2021/04/11 02:08:19;;;;;;;9.65;3.70;;;;;;;7.60;46.05;101993.66;143740;576;46018;-72
2021/04/11 02:10:49;;;;;;;3.45;2.78;;;;;;;7.58;46.24;101995.38;143737;568;48023;-72
2021/04/11 02:13:18;;;;;;;7.30;3.17;;;;;;;7.55;46.54;101984.03;143741;612;46027;-72
2021/04/11 02:15:49;;;;;;;28.62;12.27;;;;;;;7.53;46.70;101983.13;143736;577;46018;-72
2021/04/11 02:18:17;;;;;;;17.87;5.90;;;;;;;7.53;47.09;101977.91;143738;623;48010;-72
2021/04/11 02:20:44;;;;;;;23.48;13.07;;;;;;;7.52;47.24;101986.63;143735;576;48020;-72
2021/04/11 02:23:13;;;;;;;15.85;9.40;;;;;;;7.52;47.63;101976.16;143737;587;47010;-72
2021/04/11 02:25:49;;;;;;;12.40;7.18;;;;;;;7.52;46.85;101979.66;143738;611;46010;-72
2021/04/11 02:28:19;;;;;;;7.65;3.60;;;;;;;7.51;47.43;101975.28;143739;561;46008;-73
2021/04/11 02:30:53;;;;;;;6.07;2.92;;;;;;;7.53;47.25;101970.97;143735;571;48020;-73
2021/04/11 02:33:22;;;;;;;7.65;2.83;;;;;;;7.51;47.26;101977.91;143737;578;47010;-72
2021/04/11 02:35:51;;;;;;;7.22;3.90;;;;;;;7.53;47.31;101991.88;143738;575;46010;-72
2021/04/11 02:38:21;;;;;;;8.27;3.87;;;;;;;7.52;47.08;101979.66;143739;602;46019;-72
2021/04/11 02:40:49;;;;;;;8.98;4.32;;;;;;;7.52;46.65;101990.13;143735;680;46035;-72
2021/04/11 02:43:17;;;;;;;6.82;3.42;;;;;;;7.51;46.32;101980.53;143737;575;46018;-74
2021/04/11 02:45:45;;;;;;;6.20;3.60;;;;;;;7.51;46.34;101985.75;143734;600;46030;-72
2021/04/11 02:48:15;;;;;;;7.05;3.10;;;;;;;7.49;46.45;101979.66;143738;584;48010;-73
2021/04/11 02:50:43;;;;;;;7.25;4.03;;;;;;;7.49;47.11;101979.66;143737;576;46010;-72
2021/04/11 02:53:18;;;;;;;8.85;4.20;;;;;;;7.54;46.76;101982.28;143738;608;47011;-72
2021/04/11 02:55:45;;;;;;;7.85;3.95;;;;;;;7.54;47.47;101975.31;143738;589;46019;-74
2021/04/11 02:58:14;;;;;;;7.05;3.87;;;;;;;7.53;48.07;101976.19;143738;574;47010;-72
2021/04/11 03:00:56;;;;;;;6.47;3.17;;;;;;;7.53;46.94;101973.59;143733;563;48021;-72
2021/04/11 03:03:23;;;;;;;6.53;3.15;;;;;;;7.49;48.55;101979.66;143738;642;46026;-72
2021/04/11 03:05:49;;;;;;;;;;;;;;;7.52;45.32;101974.44;143743;981;46018;-72
2021/04/11 03:08:22;;;;;;;7.80;3.00;;;;;;;7.41;47.08;101974.38;143748;652;46019;-72
2021/04/11 03:11:26;;;;;;;7.57;3.00;;;;;;;7.40;46.91;101979.59;143739;613;46012;-72
2021/04/11 03:13:55;;;;;;;6.75;3.00;;;;;;;7.33;47.83;101975.22;143732;637;47013;-72
2021/04/11 03:16:24;;;;;;;5.12;2.90;;;;;;;7.34;47.56;101976.94;143737;565;46012;-72
2021/04/11 03:18:56;;;;;;;5.35;2.65;;;;;;;7.31;47.58;101977.78;143738;694;48012;-72
2021/04/11 03:21:24;;;;;;;5.62;2.90;;;;;;;7.28;47.98;101985.63;143736;592;46020;-72
2021/04/11 03:23:53;;;;;;;7.25;2.50;;;;;;;7.23;47.95;101983.00;143737;604;47011;-72
2021/04/11 03:26:36;;;;;;;4.68;2.47;;;;;;;7.23;47.08;101983.00;143739;588;46012;-72
2021/04/11 03:29:31;;;;;;;6.22;2.50;;;;;;;7.23;47.17;101983.00;143740;577;46018;-72
2021/04/11 03:32:08;;;;;;;5.45;2.67;;;;;;;7.18;47.59;101973.38;143738;574;46012;-72
2021/04/11 03:34:37;;;;;;;8.27;2.78;;;;;;;7.15;47.82;101979.47;143740;592;46018;-73
2021/04/11 03:37:08;;;;;;;5.78;2.75;;;;;;;7.14;47.65;101984.69;143734;601;46014;-73
2021/04/11 03:39:36;;;;;;;3.83;2.37;;;;;;;7.12;47.89;101995.09;143740;583;46018;-72
2021/04/11 03:42:08;;;;;;;5.62;2.60;;;;;;;7.10;47.02;101997.69;143735;563;47020;-72
2021/04/11 03:44:36;;;;;;;3.83;2.30;;;;;;;7.09;47.70;102001.19;143739;573;46019;-72
2021/04/11 03:47:19;;;;;;;6.22;2.65;;;;;;;7.08;46.77;101993.31;143734;574;46012;-72
2021/04/11 03:50:14;;;;;;;5.57;2.85;;;;;;;7.06;47.36;102000.28;143740;629;46018;-72
2021/04/11 03:52:47;;;;;;;5.85;2.50;;;;;;;7.05;47.64;101998.53;143739;645;46012;-72
2021/04/11 03:55:20;;;;;;;8.85;2.60;;;;;;;7.03;47.78;102005.50;143738;616;46018;-72
2021/04/11 03:57:51;;;;;;;4.03;2.40;;;;;;;7.04;47.40;101996.78;143735;618;47012;-72
2021/04/11 04:00:25;;;;;;;7.05;3.15;;;;;;;7.06;46.72;101993.31;143740;640;48013;-72
2021/04/11 04:02:56;;;;;;;5.80;3.53;;;;;;;7.09;47.67;102005.53;143734;568;47020;-73
2021/04/11 04:05:26;;;;;;;5.85;2.78;;;;;;;6.98;47.75;101973.25;143736;585;48010;-72
2021/04/11 04:07:57;;;;;;;6.28;2.75;;;;;;;7.11;47.52;102009.03;143735;562;46012;-72
2021/04/11 04:10:30;;;;;;;7.03;3.25;;;;;;;7.11;47.22;102003.81;143739;604;46018;-72
2021/04/11 04:13:28;;;;;;;10.25;3.15;;;;;;;7.06;47.28;102000.28;143735;561;48020;-73
2021/04/11 04:16:39;;;;;;;8.45;3.33;;;;;;;7.19;47.27;102017.81;143735;645;47012;-72
2021/04/11 04:19:33;;;;;;;9.02;3.42;;;;;;;7.20;47.89;102022.12;143735;600;46012;-72
2021/04/11 04:22:35;;;;;;;10.52;3.75;;;;;;;7.10;47.76;102004.66;143737;601;47010;-72
2021/04/11 04:25:38;;;;;;;12.25;4.37;;;;;;;7.22;47.78;102024.78;143739;592;46012;-72
2021/04/11 04:29:05;;;;;;;8.93;4.90;;;;;;;7.09;47.51;102008.12;143739;622;46018;-72
2021/04/11 04:32:08;;;;;;;10.23;4.18;;;;;;;7.23;48.54;102034.34;143739;585;46012;-72
2021/04/11 04:34:49;;;;;;;9.88;4.10;;;;;;;7.17;49.08;102027.34;143738;627;46018;-72
2021/04/11 04:37:36;;;;;;;12.55;3.80;;;;;;;7.23;48.75;102042.19;143737;590;47012;-72
2021/04/11 04:40:45;;;;;;;7.83;3.73;;;;;;;7.25;48.01;102041.34;143739;610;46012;-73
2021/04/11 04:43:31;;;;;;;8.50;4.03;;;;;;;7.25;49.90;102045.72;143735;603;46012;-72
2021/04/11 04:46:12;;;;;;;9.43;3.62;;;;;;;7.28;48.83;102048.34;143739;569;48012;-72
2021/04/11 04:48:51;;;;;;;11.77;4.10;;;;;;;7.29;49.17;102056.19;143735;563;47020;-72
2021/04/11 04:51:53;;;;;;;8.82;3.70;;;;;;;7.34;48.06;102057.94;143737;614;46018;-72
2021/04/11 04:55:09;;;;;;;8.88;4.03;;;;;;;7.39;47.62;102064.09;143737;585;46012;-72
2021/04/11 04:57:50;;;;;;;11.07;4.40;;;;;;;7.44;49.67;102068.47;143741;568;46025;-73
2021/04/11 05:00:32;;;;;;;9.38;4.20;;;;;;;7.53;48.56;102058.94;143735;696;48023;-73
2021/04/11 05:03:27;;;;;;;11.85;4.25;;;;;;;7.60;48.33;102065.97;143740;562;46018;-73
2021/04/11 05:06:12;;;;;;;8.07;3.75;;;;;;;7.63;48.70;102066.84;143739;605;46012;-73
2021/04/11 05:09:02;;;;;;;9.70;3.95;;;;;;;7.72;48.66;102073.00;143742;612;46008;-72
2021/04/11 05:12:02;;;;;;;9.68;3.80;;;;;;;7.74;47.59;102064.31;143738;579;46012;-72
2021/04/11 05:14:50;;;;;;;8.45;3.22;;;;;;;7.82;47.74;102066.97;143740;588;46019;-72
2021/04/11 05:17:38;;;;;;;8.13;3.60;;;;;;;7.90;47.54;102067.87;143737;570;46014;-73
2021/04/11 05:20:15;;;;;;;6.78;3.45;;;;;;;7.87;48.31;102056.53;143738;586;48008;-72
2021/04/11 05:22:59;;;;;;;6.30;3.72;;;;;;;7.95;47.54;102065.28;143739;605;46012;-72
2021/04/11 05:25:44;;;;;;;10.95;4.30;;;;;;;8.04;47.21;102072.31;143739;736;46018;-72
2021/04/11 05:29:11;;;;;;;9.70;4.82;;;;;;;8.14;45.85;102077.56;143734;572;46013;-72
2021/04/11 05:31:40;;;;;;;12.98;5.57;;;;;;;8.20;46.72;102079.34;143739;574;46018;-74
2021/04/11 05:34:10;;;;;;;11.93;5.62;;;;;;;8.27;46.64;102077.63;143735;653;48022;-72
2021/04/11 05:37:16;;;;;;;11.55;5.30;;;;;;;8.34;45.18;102075.88;143738;591;46019;-81
2021/04/11 05:40:15;;;;;;;9.63;4.55;;;;;;;8.40;44.25;102070.69;143740;579;46016;-73
2021/04/11 05:43:25;;;;;;;9.35;4.60;;;;;;;8.49;44.90;102081.22;143739;621;46021;-73
2021/04/11 05:46:27;;;;;;;8.75;4.45;;;;;;;8.58;44.27;102080.34;143738;575;47021;-81
2021/04/11 05:49:06;;;;;;;12.70;4.93;;;;;;;8.61;44.31;102078.63;143739;569;46018;-73
2021/04/11 05:51:56;;;;;;;9.65;4.60;;;;;;;8.70;44.23;102079.50;143739;579;46013;-73
2021/04/11 05:54:42;;;;;;;10.15;4.82;;;;;;;8.76;44.53;102074.25;143740;645;46018;-73
2021/04/11 05:57:26;;;;;;;14.73;5.72;;;;;;;8.83;44.35;102076.03;143737;623;48020;-73
2021/04/11 06:00:22;;;;;;;19.52;6.85;;;;;;;8.92;45.10;102080.41;143736;602;46019;-72
2021/04/11 06:02:57;;;;;;;15.18;7.03;;;;;;;8.97;47.45;102073.41;143737;582;46018;-73
2021/04/11 06:05:38;;;;;;;18.75;7.28;;;;;;;9.05;47.00;102076.03;143740;596;48008;-73
2021/04/11 06:08:51;;;;;;;18.95;7.28;;;;;;;9.04;46.13;102069.06;143735;568;48023;-73
2021/04/11 06:11:35;;;;;;;16.48;6.25;;;;;;;9.20;46.43;102086.53;143740;601;47010;-73
2021/04/11 06:14:55;;;;;;;17.58;6.62;;;;;;;9.29;46.07;102081.28;143737;652;47012;-73
2021/04/11 06:17:22;;;;;;;;;;;;;;;9.36;45.32;102084.75;143744;983;48010;-72
2021/04/11 06:19:49;;;;;;;21.37;6.93;;;;;;;9.38;46.69;102080.38;143748;641;47020;-73
2021/04/11 06:22:47;;;;;;;18.25;6.43;;;;;;;9.46;45.46;102080.38;143742;609;46008;-73
2021/04/11 06:25:52;;;;;;;18.33;6.62;;;;;;;9.54;45.13;102085.59;143739;600;46010;-73
2021/04/11 06:29:07;;;;;;;19.90;6.60;;;;;;;9.62;45.19;102083.84;143740;581;46018;-73
2021/04/11 06:31:39;;;;;;;15.63;7.07;;;;;;;9.67;45.72;102078.59;143738;564;46010;-73
2021/04/11 06:34:27;;;;;;;19.98;7.25;;;;;;;9.73;45.50;102076.84;143738;583;47010;-72
2021/04/11 06:37:01;;;;;;;18.90;7.82;;;;;;;9.80;46.60;102069.78;143737;613;46010;-73
2021/04/11 06:39:32;;;;;;;25.05;8.60;;;;;;;9.88;46.61;102075.88;143743;581;46010;-73
2021/04/11 06:42:50;;;;;;;16.92;7.35;;;;;;;9.94;45.20;102070.63;143741;562;46010;-73
2021/04/11 06:45:31;;;;;;;17.17;6.15;;;;;;;10.05;45.37;102082.84;143741;605;46010;-73
2021/04/11 06:48:35;;;;;;;22.95;7.95;;;;;;;10.11;45.45;102083.69;143740;649;46012;-73
2021/04/11 06:51:43;;;;;;;16.48;7.32;;;;;;;10.19;45.41;102078.41;143741;579;46019;-73
2021/04/11 06:55:22;;;;;;;17.90;7.78;;;;;;;10.29;44.75;102085.38;143739;606;46010;-73
2021/04/11 06:58:28;;;;;;;21.37;8.10;;;;;;;10.36;44.92;102085.34;143741;632;46018;-77
2021/04/11 07:01:58;;;;;;;26.35;8.95;;;;;;;10.46;44.46;102081.81;143740;607;47008;-73
2021/04/11 07:04:56;;;;;;;25.17;9.07;;;;;;;10.55;45.24;102084.37;143739;562;46020;-74
2021/04/11 07:08:14;;;;;;;18.52;7.43;;;;;;;10.65;44.38;102086.06;143740;593;47010;-73
2021/04/11 07:11:19;;;;;;;18.33;6.50;;;;;;;10.75;45.85;102078.13;143740;611;46010;-73
2021/04/11 07:14:14;;;;;;;17.58;5.95;;;;;;;10.84;44.34;102078.94;143740;563;46019;-73
2021/04/11 07:17:11;;;;;;;15.82;5.40;;;;;;;10.93;43.99;102077.97;143739;621;49008;-73
2021/04/11 07:20:29;;;;;;;9.65;3.40;;;;;;;11.05;42.24;102078.78;143740;607;46010;-73
2021/04/11 07:23:39;;;;;;;7.90;2.97;;;;;;;11.12;42.30;102078.69;143739;586;47010;-71
2021/04/11 07:26:42;;;;;;;7.87;3.40;;;;;;;11.19;41.93;102076.88;143740;688;46018;-73
2021/04/11 07:29:53;;;;;;;9.38;2.90;;;;;;;11.26;41.68;102078.59;143740;659;46019;-73
2021/04/11 07:32:43;;;;;;;9.15;3.17;;;;;;;11.32;41.92;102080.31;143737;662;46018;-73
2021/04/11 07:35:39;;;;;;;7.40;2.85;;;;;;;11.40;41.96;102081.09;143738;637;46018;-73
2021/04/11 07:38:34;;;;;;;9.07;3.25;;;;;;;11.48;42.29;102083.63;143737;590;47010;-73
2021/04/11 07:41:42;;;;;;;8.50;5.60;;;;;;;11.58;44.65;102084.44;143741;668;46018;-74
2021/04/11 07:44:37;;;;;;;7.62;3.50;;;;;;;11.66;43.59;102086.09;143738;656;46022;-72
2021/04/11 07:47:50;;;;;;;10.48;4.80;;;;;;;11.74;42.58;102090.38;143741;601;46010;-73
2021/04/11 07:50:42;;;;;;;6.43;2.50;;;;;;;11.76;42.80;102092.13;143741;581;46012;-73
2021/04/11 07:53:44;;;;;;;6.00;3.05;;;;;;;11.89;43.05;102092.88;143742;563;46019;-72
2021/04/11 07:56:59;;;;;;;10.05;2.70;;;;;;;11.92;43.57;102098.09;143738;592;46018;-73
2021/04/11 08:00:04;;;;;;;6.12;2.50;;;;;;;11.99;42.82;102099.78;143736;563;46019;-73
2021/04/11 08:03:08;;;;;;;5.25;2.85;;;;;;;12.03;43.33;102098.00;143740;644;46016;-74
2021/04/11 08:06:12;;;;;;;3.83;1.90;;;;;;;12.09;43.15;102102.31;143742;712;46020;-72
2021/04/11 08:09:06;;;;;;;4.05;2.40;;;;;;;12.14;43.40;102101.37;143739;626;46018;-72
2021/04/11 08:12:16;;;;;;;10.98;3.60;;;;;;;12.22;43.75;102097.75;143743;638;46008;-73
2021/04/11 08:15:21;;;;;;;4.37;2.22;;;;;;;12.30;43.79;102093.25;143739;577;46021;-74
2021/04/11 08:18:33;;;;;;;4.82;2.75;;;;;;;12.38;43.87;102108.97;143738;625;46033;-71
2021/04/11 08:21:30;;;;;;;4.28;2.70;;;;;;;12.50;44.84;102107.03;143741;645;45906;-76
2021/04/11 08:24:49;;;;;;;5.78;2.80;;;;;;;12.64;43.80;102100.69;143740;575;46018;-74
2021/04/11 08:28:01;;;;;;;5.35;2.45;;;;;;;12.73;45.22;102104.97;143741;593;46010;-73
2021/04/11 08:30:45;;;;;;;2.58;2.00;;;;;;;12.77;43.20;102097.00;143741;645;47008;-74
2021/04/11 08:33:51;;;;;;;8.38;2.53;;;;;;;12.84;43.50;102103.03;143736;574;48020;-73
2021/04/11 08:37:01;;;;;;;7.32;2.53;;;;;;;12.93;42.21;102108.19;143737;569;46019;-74
2021/04/11 08:40:04;;;;;;;7.55;2.97;;;;;;;13.01;43.42;102100.13;143740;568;46016;-72
2021/04/11 08:43:28;;;;;;;2.70;1.80;;;;;;;13.09;41.32;102102.66;143743;550;46008;-72
2021/04/11 08:46:31;;;;;;;7.30;2.00;;;;;;;13.13;41.77;102104.34;143741;615;46010;-71
2021/04/11 08:49:24;;;;;;;6.62;2.20;;;;;;;13.18;41.65;102098.09;143742;584;46008;-71
2021/04/11 08:52:18;;;;;;;3.12;1.75;;;;;;;13.28;40.38;102095.31;143740;631;46016;-73
2021/04/11 08:55:33;;;;;;;2.60;1.75;;;;;;;13.35;40.63;102096.94;143743;584;46018;-72
2021/04/11 08:58:32;;;;;;;3.50;1.98;;;;;;;13.44;40.92;102088.03;143740;579;46019;-72
2021/04/11 09:01:46;;;;;;;4.90;3.08;;;;;;;13.54;40.58;102090.47;143741;576;46010;-72
2021/04/11 09:04:38;;;;;;;2.83;1.83;;;;;;;13.61;38.72;102090.34;143738;575;46010;-78
2021/04/11 09:07:45;;;;;;;2.90;2.00;;;;;;;13.68;39.77;102089.31;143740;564;47010;-72
2021/04/11 09:11:09;;;;;;;4.78;2.10;;;;;;;13.80;40.87;102082.94;143738;645;46018;-80
2021/04/11 09:14:22;;;;;;;3.83;2.17;;;;;;;13.95;40.15;102074.69;143739;564;46019;-72
2021/04/11 09:17:45;;;;;;;4.55;2.35;;;;;;;14.05;39.90;102085.94;143741;590;46012;-72
2021/04/11 09:20:57;;;;;;;3.40;2.10;;;;;;;14.14;41.14;102072.56;143740;625;46018;-71
2021/04/11 09:24:02;;;;;;;6.53;2.70;;;;;;;14.30;41.20;102075.75;143739;580;46010;-72
2021/04/11 09:27:18;;;;;;;3.17;2.25;;;;;;;14.41;40.88;102058.75;143738;590;46018;-71
2021/04/11 09:30:13;;;;;;;3.40;2.05;;;;;;;14.55;39.65;102072.53;143738;587;46018;-72
2021/04/11 09:33:37;;;;;;;4.00;2.40;;;;;;;14.65;39.89;102065.28;143738;590;48006;-72
2021/04/11 09:36:22;;;;;;;4.60;2.20;;;;;;;14.72;39.34;102061.59;143741;630;46010;-72
2021/04/11 09:39:39;;;;;;;4.60;2.85;;;;;;;14.82;41.16;102067.56;143736;596;46030;-72
2021/04/11 09:43:04;;;;;;;6.47;2.50;;;;;;;14.97;41.52;102061.03;143741;640;46011;-72
2021/04/11 09:45:56;;;;;;;3.85;2.85;;;;;;;15.10;40.24;102057.13;143739;612;48008;-72
2021/04/11 09:49:23;;;;;;;5.20;2.25;;;;;;;15.26;40.80;102057.63;143739;613;47020;-72
2021/04/11 09:52:41;;;;;;;5.12;2.85;;;;;;;15.39;40.85;102052.84;143739;590;47008;-72
2021/04/11 09:55:54;;;;;;;8.18;2.72;;;;;;;15.54;40.87;102046.28;143741;568;46016;-72
2021/04/11 09:58:50;;;;;;;7.82;3.50;;;;;;;15.65;40.56;102049.50;143743;564;46008;-73
2021/04/11 10:01:41;;;;;;;4.05;2.40;;;;;;;15.71;39.64;102049.31;143739;606;46010;-72
2021/04/11 10:05:01;;;;;;;5.07;2.33;;;;;;;15.79;38.83;102045.56;143741;593;46008;-72
2021/04/11 10:08:07;;;;;;;4.18;2.42;;;;;;;15.73;38.73;102047.50;143740;568;46010;-73
2021/04/11 10:11:09;;;;;;;4.57;2.70;;;;;;;15.67;39.15;102044.16;143741;617;47008;-73
2021/04/11 10:14:24;;;;;;;3.95;2.47;;;;;;;15.63;39.75;102048.66;143738;570;46018;-72
2021/04/11 10:17:31;;;;;;;6.57;3.30;;;;;;;15.63;39.50;102038.09;143741;619;47010;-73
2021/04/11 10:20:34;;;;;;;6.80;3.20;;;;;;;15.69;40.37;102037.03;143740;585;46044;-72
2021/04/11 10:23:26;;;;;;;6.60;3.10;;;;;;;15.83;40.65;102026.09;143739;575;47571;-73
2021/04/11 10:26:37;;;;;;;7.55;2.87;;;;;;;15.91;39.71;102024.09;143740;614;46010;-72
2021/04/11 10:29:12;;;;;;;7.37;2.95;;;;;;;15.93;39.00;102021.41;143739;569;46018;-74
2021/04/11 10:32:17;;;;;;;6.93;3.90;;;;;;;15.96;39.48;102016.84;143737;562;46032;-71
2021/04/11 10:35:26;;;;;;;7.62;4.40;;;;;;;15.95;39.92;102014.25;143739;613;46019;-69
2021/04/11 10:38:04;;;;;;;;;;;;;;;16.00;40.34;102023.78;143743;981;46018;-75
2021/04/11 10:41:11;;;;;;;6.85;3.60;;;;;;;16.02;39.69;102021.09;143749;561;46018;-73
2021/04/11 10:44:16;;;;;;;10.07;4.43;;;;;;;16.05;40.50;102007.78;143740;684;46012;-75
2021/04/11 10:47:32;;;;;;;12.07;5.82;;;;;;;16.19;39.87;102017.94;143742;589;46010;-73
2021/04/11 10:50:27;;;;;;;7.62;3.58;;;;;;;16.30;39.42;102010.53;143741;598;46012;-73
2021/04/11 10:53:28;;;;;;;16.48;4.85;;;;;;;16.36;40.12;102015.66;143741;592;46010;-73
2021/04/11 10:56:34;;;;;;;5.75;2.95;;;;;;;16.39;38.91;102007.59;143740;564;46017;-72
2021/04/11 10:59:47;;;;;;;10.10;4.20;;;;;;;16.40;40.50;102009.34;143740;574;49010;-72
2021/04/11 11:03:02;;;;;;;8.73;4.00;;;;;;;16.37;40.34;101992.66;143739;618;46012;-74
2021/04/11 11:05:59;;;;;;;6.07;2.90;;;;;;;16.50;40.08;102006.41;143740;626;46012;-73
2021/04/11 11:09:17;;;;;;;8.90;3.15;;;;;;;16.55;39.70;102000.03;143739;571;46012;-73
2021/04/11 11:12:32;;;;;;;8.63;4.57;;;;;;;16.60;40.17;102004.31;143740;574;46020;-73
2021/04/11 11:15:26;;;;;;;15.10;4.57;;;;;;;16.70;40.69;102003.97;143736;579;46012;-74
2021/04/11 11:18:59;;;;;;;10.70;3.62;;;;;;;16.84;38.77;101998.19;143736;591;46018;-73
2021/04/11 11:22:00;;;;;;;7.87;3.55;;;;;;;16.86;39.20;101992.81;143733;568;47012;-74
2021/04/11 11:25:15;;;;;;;6.65;3.87;;;;;;;16.86;39.45;101992.81;143738;597;46018;-72
2021/04/11 11:28:19;;;;;;;7.30;3.60;;;;;;;16.88;39.06;101986.53;143738;748;46012;-73
2021/04/11 11:31:17;;;;;;;6.00;3.17;;;;;;;16.97;40.75;101981.88;143739;596;47010;-73
2021/04/11 11:34:17;;;;;;;5.30;3.25;;;;;;;17.10;39.43;101980.53;143736;592;47012;-73
2021/04/11 11:37:12;;;;;;;7.50;3.20;;;;;;;17.04;38.93;101983.38;143738;588;46027;-73
2021/04/11 11:39:49;;;;;;;5.20;2.87;;;;;;;17.04;39.71;101975.44;143739;647;46012;-72
2021/04/11 11:43:02;;;;;;;5.55;3.03;;;;;;;17.11;40.57;101968.13;143736;569;47012;-73
2021/04/11 11:45:54;;;;;;;5.03;3.05;;;;;;;17.28;40.59;101971.03;143738;579;46018;-73
2021/04/11 11:48:50;;;;;;;6.30;3.00;;;;;;;17.50;40.28;101960.50;143737;578;49010;-72
2021/04/11 11:51:57;;;;;;;5.45;2.85;;;;;;;17.68;36.89;101960.72;143737;626;46012;-71
2021/04/11 11:54:38;;;;;;;6.90;2.70;;;;;;;17.73;37.68;101951.66;143738;646;46018;-73
2021/04/11 11:57:59;;;;;;;5.32;2.60;;;;;;;17.70;36.73;101949.13;143737;894;47015;-73
2021/04/11 12:00:36;;;;;;;4.90;2.47;;;;;;;17.67;37.34;101943.91;143740;582;46018;-73
2021/04/11 12:03:26;;;;;;;3.83;2.40;;;;;;;17.67;38.08;101943.91;143736;968;46020;-73
2021/04/11 12:06:18;;;;;;;2.90;2.33;;;;;;;17.71;38.11;101942.84;143736;591;46018;-72
2021/04/11 12:09:07;;;;;;;3.22;2.22;;;;;;;17.83;37.50;101935.34;143739;621;46016;-72
2021/04/11 12:12:31;;;;;;;4.72;2.75;;;;;;;18.03;37.78;101927.50;143738;653;46020;-74
2021/04/11 12:15:23;;;;;;;3.03;2.12;;;;;;;18.17;38.52;101931.41;143737;582;46018;-72
2021/04/11 12:18:21;;;;;;;3.42;2.05;;;;;;;18.33;37.77;101931.59;143736;641;46013;-73
2021/04/11 12:21:26;;;;;;;4.65;2.42;;;;;;;18.46;37.46;101922.19;143735;895;46018;-72
2021/04/11 12:24:21;;;;;;;4.07;2.58;;;;;;;18.54;38.22;101908.59;143738;973;46018;-69
2021/04/11 12:26:51;;;;;;;4.37;2.30;;;;;;;18.54;37.81;101924.53;143736;775;47010;-72
2021/04/11 12:29:25;;;;;;;5.32;2.20;;;;;;;18.60;38.95;101917.19;143734;971;46018;-73
2021/04/11 12:32:34;;;;;;;6.07;2.15;;;;;;;18.71;38.59;101916.72;143734;981;46018;-72
2021/04/11 12:35:26;;;;;;;3.12;2.08;;;;;;;18.68;38.76;101927.47;143739;812;46019;-72
2021/04/11 12:38:33;;;;;;;3.22;2.12;;;;;;;18.65;39.47;101911.66;143736;632;46020;-71
2021/04/11 12:41:19;;;;;;;2.42;2.00;;;;;;;18.68;39.90;101906.19;143736;690;46018;-69
2021/04/11 12:44:09;;;;;;;4.97;2.30;;;;;;;18.82;41.25;101896.75;143739;593;46023;-70
2021/04/11 12:47:38;;;;;;;5.03;2.00;;;;;;;18.99;39.45;101894.22;143737;575;47010;-71
2021/04/11 12:50:20;;;;;;;3.50;2.17;;;;;;;19.14;39.69;101891.81;143733;981;46031;-70
2021/04/11 12:53:24;;;;;;;3.70;2.15;;;;;;;19.24;38.21;101882.47;143738;574;47010;-72
2021/04/11 12:56:05;;;;;;;5.30;2.15;;;;;;;19.26;38.88;101880.63;143739;642;46019;-72
2021/04/11 12:59:08;;;;;;;2.90;2.25;;;;;;;19.26;38.19;101888.59;143741;580;46012;-74
2021/04/11 13:01:52;;;;;;;4.62;2.00;;;;;;;19.31;38.54;101867.94;143737;753;46018;-73
2021/04/11 13:04:35;;;;;;;3.30;2.10;;;;;;;19.47;37.86;101862.75;143738;640;46019;-72
2021/04/11 13:07:11;;;;;;;3.33;1.92;;;;;;;19.49;36.94;101873.34;143739;572;46012;-72
2021/04/11 13:10:20;;;;;;;3.63;1.83;;;;;;;19.57;37.30;101868.50;143742;637;46011;-69
2021/04/11 13:13:24;;;;;;;4.55;2.03;;;;;;;19.64;37.17;101848.62;143738;570;46035;-72